Time;durP1;ratioP1;P1;durP2;ratioP2;P2;SDS_P1;SDS_P2;PMS_P1;PMS_P2;Temp;Humidity;BMP_temperature;BMP_pressure;BME280_temperature;BME280_humidity;BME280_pressure;Samples;Min_cycle;Max_cycle;Signal;HPM_P1;HPM_P2
2021/09/29 00:00:51;;;;;;;8.45;7.55;;;10.40;99.90;;;;;;5031824;28;20045;-87
2021/09/29 00:03:18;;;;;;;11.48;7.60;;;10.40;99.90;;;;;;5031614;28;20089;-87
2021/09/29 00:05:45;;;;;;;9.30;7.43;;;10.50;99.90;;;;;;5031913;28;20046;-87
2021/09/29 00:08:11;;;;;;;9.13;7.20;;;10.50;99.90;;;;;;5031716;28;20057;-87
2021/09/29 00:10:40;;;;;;;9.25;6.85;;;10.50;99.90;;;;;;5031948;28;20050;-87
2021/09/29 00:13:07;;;;;;;10.93;7.20;;;10.40;99.90;;;;;;5039699;28;20132;-86
2021/09/29 00:15:34;;;;;;;8.05;6.50;;;10.50;99.90;;;;;;5034568;28;20045;-87
2021/09/29 00:18:01;;;;;;;11.68;7.25;;;10.50;99.90;;;;;;5033984;28;20060;-87
2021/09/29 00:20:27;;;;;;;8.68;7.22;;;10.40;99.90;;;;;;5035339;28;20054;-87
2021/09/29 00:22:54;;;;;;;8.55;6.85;;;10.50;99.90;;;;;;5034832;28;20060;-86
2021/09/29 00:25:21;;;;;;;7.55;6.40;;;10.40;99.90;;;;;;5034992;28;20049;-87
2021/09/29 00:27:48;;;;;;;7.22;6.60;;;10.40;99.90;;;;;;5035894;28;20057;-87
2021/09/29 00:30:15;;;;;;;9.32;6.70;;;10.40;99.90;;;;;;5034861;28;20055;-87
2021/09/29 00:32:43;;;;;;;6.47;5.88;;;10.40;99.90;;;;;;5034878;28;20144;-86
2021/09/29 00:35:12;;;;;;;6.20;5.60;;;10.40;99.90;;;;;;5034731;28;20056;-86
2021/09/29 00:37:39;;;;;;;7.60;6.32;;;10.50;99.90;;;;;;5035419;28;20140;-86
2021/09/29 00:40:08;;;;;;;7.68;6.90;;;10.50;99.90;;;;;;5035741;28;20057;-85
2021/09/29 00:42:35;;;;;;;9.00;6.22;;;10.40;99.90;;;;;;5034980;28;20459;-87
2021/09/29 00:45:04;;;;;;;6.32;5.82;;;10.50;99.90;;;;;;5034830;28;20049;-86
2021/09/29 00:47:32;;;;;;;6.72;5.97;;;10.50;99.90;;;;;;5035638;28;20128;-87
2021/09/29 00:50:00;;;;;;;10.30;5.90;;;10.40;99.90;;;;;;5034537;28;20072;-87
2021/09/29 00:52:28;;;;;;;6.53;5.93;;;10.50;99.90;;;;;;5034619;28;20508;-86
2021/09/29 00:54:55;;;;;;;8.35;6.55;;;10.50;99.90;;;;;;5034313;28;20056;-87
2021/09/29 00:57:22;;;;;;;6.80;5.82;;;10.50;99.90;;;;;;5035297;28;20056;-86
2021/09/29 00:59:49;;;;;;;8.23;6.53;;;10.50;99.90;;;;;;5034475;28;20049;-87
2021/09/29 01:02:20;;;;;;;6.85;6.25;;;10.50;99.90;;;;;;5034318;28;20046;-87
2021/09/29 01:04:47;;;;;;;7.35;6.65;;;10.50;99.90;;;;;;5035405;28;20111;-87
2021/09/29 01:07:25;;;;;;;9.77;7.22;;;10.40;99.90;;;;;;5035144;28;20132;-87
2021/09/29 01:10:15;;;;;;;6.75;6.05;;;10.40;99.90;;;;;;5034398;28;20060;-87
2021/09/29 01:13:07;;;;;;;7.07;6.30;;;10.40;99.90;;;;;;5033914;28;20047;-86
2021/09/29 01:15:43;;;;;;;8.15;6.72;;;10.40;99.90;;;;;;5033796;28;20065;-86
2021/09/29 01:18:10;;;;;;;7.18;6.47;;;10.40;99.90;;;;;;5034032;28;20060;-87
2021/09/29 01:20:50;;;;;;;6.82;5.97;;;10.40;99.90;;;;;;5033911;28;20045;-86
2021/09/29 01:23:54;;;;;;;6.85;6.13;;;10.50;99.90;;;;;;5033850;28;20049;-86
2021/09/29 01:26:21;;;;;;;;;;;10.50;99.90;;;;;;5030713;28;20049;-87
2021/09/29 01:28:52;;;;;;;9.20;5.90;;;10.50;99.90;;;;;;5033349;28;20358;-87
2021/09/29 01:31:20;;;;;;;6.63;5.68;;;10.50;99.90;;;;;;5042162;28;20057;-87
2021/09/29 01:33:49;;;;;;;7.43;5.63;;;10.50;99.90;;;;;;5036921;28;20072;-87
2021/09/29 01:36:18;;;;;;;5.95;5.35;;;10.40;99.90;;;;;;5033587;28;20136;-86
2021/09/29 01:38:48;;;;;;;6.10;5.50;;;10.40;99.90;;;;;;5033505;28;20081;-86
2021/09/29 01:41:15;;;;;;;5.80;5.28;;;10.40;99.90;;;;;;5033645;28;20077;-86
2021/09/29 01:43:42;;;;;;;6.78;5.70;;;10.40;99.90;;;;;;5033685;28;20072;-86
2021/09/29 01:46:09;;;;;;;9.57;5.45;;;10.40;99.90;;;;;;5034280;28;20136;-86
2021/09/29 01:48:55;;;;;;;7.22;6.13;;;10.40;99.90;;;;;;5034470;28;20505;-86
2021/09/29 01:51:23;;;;;;;10.07;5.60;;;10.50;99.90;;;;;;5033595;28;20045;-87
2021/09/29 01:53:54;;;;;;;8.27;4.95;;;10.50;99.90;;;;;;5033324;28;20049;-86
2021/09/29 01:56:22;;;;;;;8.95;4.90;;;10.50;99.90;;;;;;5033121;28;20067;-86
2021/09/29 01:58:49;;;;;;;6.05;5.45;;;10.50;99.90;;;;;;5034148;28;20063;-86
2021/09/29 02:01:16;;;;;;;5.88;5.32;;;10.50;99.90;;;;;;5033419;28;20440;-86
2021/09/29 02:03:45;;;;;;;5.47;5.07;;;10.50;99.90;;;;;;5033668;28;20111;-86
2021/09/29 02:06:13;;;;;;;7.63;5.88;;;10.40;99.90;;;;;;5034214;28;20042;-86
2021/09/29 02:08:41;;;;;;;5.32;4.82;;;10.50;99.90;;;;;;5033999;28;20059;-86
2021/09/29 02:11:08;;;;;;;7.32;5.57;;;10.50;99.90;;;;;;5033112;28;20128;-87
2021/09/29 02:13:34;;;;;;;7.95;5.40;;;10.50;99.90;;;;;;5033067;28;20060;-87
2021/09/29 02:16:01;;;;;;;7.07;5.05;;;10.60;99.90;;;;;;5033701;28;20480;-86
2021/09/29 02:18:28;;;;;;;8.10;5.07;;;10.60;99.90;;;;;;5032753;28;20498;-86
2021/09/29 02:20:55;;;;;;;8.65;4.80;;;10.50;99.90;;;;;;5032677;28;20132;-86
2021/09/29 02:23:22;;;;;;;5.70;5.10;;;10.50;99.90;;;;;;5032596;28;20136;-86
2021/09/29 02:25:49;;;;;;;7.50;5.13;;;10.60;99.90;;;;;;5032622;28;20057;-87
2021/09/29 02:28:16;;;;;;;8.32;5.45;;;10.60;99.90;;;;;;5032859;28;20401;-86
2021/09/29 02:30:43;;;;;;;9.35;5.70;;;10.70;99.90;;;;;;5032840;28;20054;-86
2021/09/29 02:33:10;;;;;;;9.40;4.93;;;10.60;99.90;;;;;;5032684;28;20417;-86
2021/09/29 02:35:37;;;;;;;7.95;4.93;;;10.60;99.90;;;;;;5032512;28;20063;-86
2021/09/29 02:38:04;;;;;;;9.02;4.43;;;10.70;99.90;;;;;;5032357;28;20050;-86
2021/09/29 02:40:31;;;;;;;7.13;4.30;;;10.70;99.90;;;;;;5031538;28;20516;-87
2021/09/29 02:42:57;;;;;;;5.57;4.93;;;10.70;99.90;;;;;;5032493;28;20270;-86
2021/09/29 02:45:24;;;;;;;7.82;4.45;;;10.70;99.90;;;;;;5033212;28;20136;-85
2021/09/29 02:47:51;;;;;;;9.75;4.55;;;10.70;99.90;;;;;;5034162;28;20053;-86
2021/09/29 02:50:17;;;;;;;5.78;4.50;;;10.70;99.90;;;;;;5039620;28;20060;-86
2021/09/29 02:52:44;;;;;;;8.77;5.13;;;10.70;99.90;;;;;;5034207;28;20096;-87
2021/09/29 02:55:11;;;;;;;6.07;4.45;;;10.70;99.90;;;;;;5033354;28;20475;-86
2021/09/29 02:57:38;;;;;;;6.45;5.00;;;10.70;99.90;;;;;;5032960;28;20053;-87
2021/09/29 03:00:06;;;;;;;9.43;4.65;;;10.70;99.90;;;;;;5032621;28;20409;-85
2021/09/29 03:02:32;;;;;;;9.93;4.40;;;10.70;99.90;;;;;;5032109;28;20052;-86
2021/09/29 03:05:00;;;;;;;10.48;5.30;;;10.80;99.90;;;;;;5031908;28;20520;-86
2021/09/29 03:07:26;;;;;;;6.38;5.10;;;10.60;99.90;;;;;;5033193;28;20057;-86
2021/09/29 03:09:53;;;;;;;8.65;5.10;;;10.60;99.90;;;;;;5032245;28;20041;-86
2021/09/29 03:12:20;;;;;;;6.93;5.03;;;10.70;99.90;;;;;;5032038;28;20077;-86
2021/09/29 03:14:47;;;;;;;6.13;5.53;;;10.70;99.90;;;;;;5033055;28;20080;-86
2021/09/29 03:17:13;;;;;;;8.88;5.40;;;10.80;99.90;;;;;;5031835;28;20057;-86
2021/09/29 03:19:40;;;;;;;6.05;5.30;;;10.70;99.90;;;;;;5032198;28;20163;-86
2021/09/29 03:22:07;;;;;;;6.93;5.63;;;10.70;99.90;;;;;;5033075;28;20077;-86
2021/09/29 03:24:34;;;;;;;11.43;6.22;;;10.80;99.90;;;;;;5031836;28;20132;-86
2021/09/29 03:27:01;;;;;;;8.25;5.25;;;10.80;99.90;;;;;;5032182;28;20124;-86
2021/09/29 03:29:28;;;;;;;5.78;5.28;;;10.70;99.90;;;;;;5032986;28;20056;-86
2021/09/29 03:31:54;;;;;;;7.28;5.05;;;10.80;99.90;;;;;;5031992;28;20383;-86
2021/09/29 03:34:21;;;;;;;8.15;4.80;;;10.80;99.90;;;;;;5031974;28;20068;-87
2021/09/29 03:36:48;;;;;;;8.68;5.00;;;10.90;99.90;;;;;;5032854;28;20069;-87
2021/09/29 03:39:15;;;;;;;7.50;5.30;;;10.80;99.90;;;;;;5031754;28;20485;-86
2021/09/29 03:41:42;;;;;;;11.63;5.75;;;10.90;99.90;;;;;;5033524;28;20478;-87
2021/09/29 03:44:09;;;;;;;8.52;5.50;;;10.70;99.90;;;;;;5032040;28;20049;-86
2021/09/29 03:46:36;;;;;;;12.65;5.40;;;10.70;99.90;;;;;;5031747;28;20052;-87
2021/09/29 03:49:04;;;;;;;6.30;5.70;;;10.60;99.90;;;;;;5031677;28;20071;-87
2021/09/29 03:51:32;;;;;;;9.10;5.45;;;10.70;99.90;;;;;;5032018;28;20140;-86
2021/09/29 03:53:58;;;;;;;9.27;5.55;;;10.70;99.90;;;;;;5035698;28;20137;-86
2021/09/29 03:56:26;;;;;;;8.40;5.18;;;10.70;99.90;;;;;;5035433;28;20053;-86
2021/09/29 03:58:53;;;;;;;7.53;5.30;;;10.70;99.90;;;;;;5035389;28;20416;-86
2021/09/29 04:01:19;;;;;;;8.82;5.50;;;10.80;99.90;;;;;;5035484;28;20466;-85
2021/09/29 04:03:46;;;;;;;9.48;5.43;;;10.90;99.90;;;;;;5036395;28;20060;-86
2021/09/29 04:06:13;;;;;;;6.07;5.50;;;10.90;99.90;;;;;;5037321;28;20588;-86
2021/09/29 04:08:40;;;;;;;6.00;5.40;;;10.80;99.90;;;;;;5042337;28;20113;-86
2021/09/29 04:11:09;;;;;;;6.78;5.05;;;10.80;99.90;;;;;;5035842;28;20045;-86
2021/09/29 04:13:36;;;;;;;7.57;5.32;;;10.80;99.90;;;;;;5035125;28;20136;-86
2021/09/29 04:16:03;;;;;;;6.85;5.70;;;10.70;99.90;;;;;;5034907;28;20049;-86
2021/09/29 04:18:30;;;;;;;6.80;5.28;;;10.80;99.90;;;;;;5035071;28;20056;-86
2021/09/29 04:20:57;;;;;;;7.93;5.60;;;10.80;99.90;;;;;;5035089;28;20041;-86
2021/09/29 04:23:23;;;;;;;5.45;4.97;;;10.80;99.90;;;;;;5035143;28;20079;-85
2021/09/29 04:25:52;;;;;;;7.15;5.32;;;10.80;99.90;;;;;;5035819;28;20052;-86
2021/09/29 04:28:20;;;;;;;9.20;5.82;;;10.90;99.90;;;;;;5034940;28;20145;-86
2021/09/29 04:30:47;;;;;;;11.43;5.35;;;11.00;99.90;;;;;;5035684;28;20457;-86
2021/09/29 04:33:14;;;;;;;8.05;5.30;;;11.00;99.90;;;;;;5036724;28;20411;-85
2021/09/29 04:35:41;;;;;;;9.05;5.40;;;11.10;99.90;;;;;;5035459;28;20068;-86
2021/09/29 04:38:08;;;;;;;7.55;5.78;;;11.10;99.90;;;;;;5035573;28;20051;-85
2021/09/29 04:40:35;;;;;;;6.88;5.25;;;11.10;99.90;;;;;;5035680;28;20056;-85
2021/09/29 04:43:02;;;;;;;9.70;5.50;;;11.10;99.90;;;;;;5035367;28;20075;-86
2021/09/29 04:45:28;;;;;;;6.07;5.00;;;11.10;99.90;;;;;;5034067;28;20050;-86
2021/09/29 04:47:55;;;;;;;6.85;5.13;;;11.20;99.90;;;;;;5034229;28;20049;-86
2021/09/29 04:50:22;;;;;;;6.68;4.95;;;11.10;99.90;;;;;;5034558;28;20057;-86
2021/09/29 04:52:49;;;;;;;8.38;5.75;;;11.20;99.90;;;;;;5034469;28;20049;-87
2021/09/29 04:55:16;;;;;;;7.50;5.20;;;11.10;99.90;;;;;;5034121;28;20056;-86
2021/09/29 04:57:43;;;;;;;6.05;5.55;;;11.10;99.90;;;;;;5035115;28;20049;-85
2021/09/29 05:00:10;;;;;;;10.43;6.15;;;11.10;99.90;;;;;;5034253;28;20049;-87
2021/09/29 05:02:39;;;;;;;15.05;6.50;;;11.10;99.90;;;;;;5033788;28;20495;-87
2021/09/29 05:05:07;;;;;;;9.20;6.38;;;11.10;99.90;;;;;;5033199;28;20456;-86
2021/09/29 05:07:34;;;;;;;9.48;6.57;;;11.10;99.90;;;;;;5035003;28;20045;-86
2021/09/29 05:10:04;;;;;;;19.88;7.18;;;11.20;99.90;;;;;;5033849;28;20045;-86
2021/09/29 05:12:32;;;;;;;12.40;6.47;;;11.10;99.90;;;;;;5035098;28;20122;-87
2021/09/29 05:14:59;;;;;;;10.82;6.00;;;11.00;99.90;;;;;;5034626;28;20053;-86
2021/09/29 05:17:26;;;;;;;8.48;6.07;;;11.00;99.90;;;;;;5034770;28;20469;-86
2021/09/29 05:19:53;;;;;;;7.68;5.63;;;11.10;99.90;;;;;;5033562;28;20068;-86
2021/09/29 05:22:20;;;;;;;13.80;6.68;;;11.10;99.90;;;;;;5033841;28;20049;-85
2021/09/29 05:24:47;;;;;;;13.68;6.35;;;11.10;99.90;;;;;;5044839;28;20384;-86
2021/09/29 05:27:14;;;;;;;10.98;6.63;;;11.10;99.90;;;;;;5042063;28;20489;-86
2021/09/29 05:29:48;;;;;;;6.53;5.82;;;11.10;99.90;;;;;;5033721;28;20053;-86
2021/09/29 05:32:15;;;;;;;8.40;6.47;;;11.10;99.90;;;;;;5033869;28;20395;-85
2021/09/29 05:34:42;;;;;;;12.85;6.35;;;11.00;99.90;;;;;;5033759;28;20516;-85
2021/09/29 05:37:09;;;;;;;16.52;7.00;;;11.00;99.90;;;;;;5034359;28;20041;-85
2021/09/29 05:39:36;;;;;;;8.43;6.32;;;11.00;99.90;;;;;;5034266;28;20054;-86
2021/09/29 05:42:03;;;;;;;8.88;5.88;;;11.00;99.90;;;;;;5033633;28;20048;-86
2021/09/29 05:44:30;;;;;;;6.93;6.10;;;11.00;99.90;;;;;;5033500;28;20060;-86
2021/09/29 05:46:57;;;;;;;51.53;31.58;;;10.90;99.90;;;;;;5033496;28;20417;-86
2021/09/29 05:49:24;;;;;;;53.40;32.22;;;10.90;99.90;;;;;;5033200;28;20137;-85
2021/09/29 05:51:51;;;;;;;22.90;17.17;;;10.90;99.90;;;;;;5034286;28;20051;-86
2021/09/29 05:54:17;;;;;;;21.58;12.77;;;10.90;99.90;;;;;;5034270;28;20492;-85
2021/09/29 05:56:44;;;;;;;14.48;10.38;;;10.90;99.90;;;;;;5032954;28;20055;-86
2021/09/29 05:59:11;;;;;;;11.57;8.73;;;10.80;99.90;;;;;;5032792;28;20409;-85
2021/09/29 06:01:38;;;;;;;9.73;8.45;;;10.80;99.90;;;;;;5033060;28;20045;-86
2021/09/29 06:04:05;;;;;;;13.95;8.15;;;10.90;99.90;;;;;;5032999;28;20050;-85
2021/09/29 06:06:33;;;;;;;14.55;7.32;;;10.90;99.90;;;;;;5032563;28;20368;-85
2021/09/29 06:09:00;;;;;;;11.68;7.32;;;10.90;99.90;;;;;;5033011;28;20060;-86
2021/09/29 06:11:27;;;;;;;9.52;7.03;;;10.80;99.90;;;;;;5032835;28;20295;-86
2021/09/29 06:13:54;;;;;;;11.15;6.90;;;10.80;99.90;;;;;;5033905;28;20053;-86
2021/09/29 06:16:20;;;;;;;14.60;7.93;;;10.90;99.90;;;;;;5033219;28;20132;-86
2021/09/29 06:18:50;;;;;;;14.38;8.40;;;10.90;99.90;;;;;;5032524;28;20053;-85
2021/09/29 06:21:18;;;;;;;16.20;7.57;;;10.90;99.90;;;;;;5033579;28;20053;-86
2021/09/29 06:23:44;;;;;;;14.23;7.85;;;11.00;99.90;;;;;;5033629;28;20067;-86
2021/09/29 06:26:11;;;;;;;15.25;6.95;;;11.00;99.90;;;;;;5033562;28;20045;-86
2021/09/29 06:28:38;;;;;;;29.67;8.38;;;11.00;99.90;;;;;;5033916;28;20059;-86
2021/09/29 06:31:06;;;;;;;33.60;8.35;;;11.00;99.90;;;;;;5033573;28;20198;-86
2021/09/29 06:33:33;;;;;;;21.40;7.28;;;11.10;99.90;;;;;;5033679;28;20131;-86
2021/09/29 06:36:01;;;;;;;25.33;7.88;;;11.10;99.90;;;;;;5032865;28;20075;-85
2021/09/29 06:38:28;;;;;;;10.95;7.30;;;11.10;99.90;;;;;;5033739;28;20050;-86
2021/09/29 06:40:56;;;;;;;26.02;7.65;;;11.10;99.90;;;;;;5034183;28;20045;-86
2021/09/29 06:43:23;;;;;;;18.73;7.03;;;11.20;99.90;;;;;;5046870;28;20105;-85
2021/09/29 06:45:49;;;;;;;12.25;6.80;;;11.20;99.90;;;;;;5037000;28;20049;-86
2021/09/29 06:48:16;;;;;;;20.73;9.57;;;11.30;99.90;;;;;;5032680;28;20052;-86
2021/09/29 06:50:43;;;;;;;19.98;11.65;;;11.30;99.90;;;;;;5033583;28;20049;-86
2021/09/29 06:53:21;;;;;;;11.48;9.07;;;11.30;99.90;;;;;;5032464;28;20072;-86
2021/09/29 06:55:49;;;;;;;20.80;8.30;;;11.40;99.90;;;;;;5032503;28;20059;-85
2021/09/29 06:58:17;;;;;;;12.20;7.72;;;11.40;99.90;;;;;;5032548;28;20054;-86
2021/09/29 07:00:44;;;;;;;20.42;8.30;;;11.50;99.90;;;;;;5032425;28;20671;-86
2021/09/29 07:03:13;;;;;;;24.13;7.55;;;11.40;99.90;;;;;;5032460;28;20076;-86
2021/09/29 07:05:40;;;;;;;19.60;7.93;;;11.40;99.90;;;;;;5032442;28;20060;-86
2021/09/29 07:08:07;;;;;;;22.20;8.80;;;11.40;99.90;;;;;;5032259;28;20119;-86
2021/09/29 07:10:33;;;;;;;20.58;7.63;;;11.50;99.90;;;;;;5033435;28;20045;-86
2021/09/29 07:13:00;;;;;;;14.55;7.53;;;11.60;99.90;;;;;;5032322;28;20057;-86
2021/09/29 07:15:27;;;;;;;13.27;7.50;;;11.80;99.90;;;;;;5031987;28;20057;-87
2021/09/29 07:17:58;;;;;;;12.30;7.05;;;11.90;99.90;;;;;;5033546;28;20045;-86
2021/09/29 07:20:26;;;;;;;12.48;7.05;;;12.10;99.90;;;;;;5032325;28;20463;-86
2021/09/29 07:22:54;;;;;;;10.95;6.65;;;12.00;99.90;;;;;;5033445;28;20092;-86
2021/09/29 07:25:21;;;;;;;19.67;7.85;;;12.20;99.90;;;;;;5032036;28;20075;-86
2021/09/29 07:27:48;;;;;;;14.55;7.72;;;12.30;99.90;;;;;;5034763;28;20050;-86
2021/09/29 07:30:15;;;;;;;37.75;8.80;;;12.40;99.90;;;;;;5036143;28;20056;-86
2021/09/29 07:32:45;;;;;;;24.08;8.25;;;12.70;99.90;;;;;;5036356;28;20099;-86
2021/09/29 07:35:13;;;;;;;13.82;5.47;;;13.10;99.90;;;;;;5035838;28;20049;-86
2021/09/29 07:37:40;;;;;;;5.97;3.83;;;14.10;99.90;;;;;;5035345;28;20060;-86
2021/09/29 07:40:07;;;;;;;6.28;3.58;;;15.60;99.90;;;;;;5035396;28;20482;-84
2021/09/29 07:42:35;;;;;;;5.60;4.07;;;16.30;99.90;;;;;;5035691;28;20383;-85
2021/09/29 07:45:07;;;;;;;5.13;4.40;;;16.30;99.90;;;;;;5036226;28;20140;-87
2021/09/29 07:47:34;;;;;;;4.28;3.20;;;16.40;99.90;;;;;;5034817;28;20052;-85
2021/09/29 07:50:04;;;;;;;3.10;2.90;;;16.50;99.90;;;;;;5034229;28;20088;-85
2021/09/29 07:52:30;;;;;;;3.95;3.35;;;16.90;99.90;;;;;;5035431;28;20079;-85
2021/09/29 07:54:57;;;;;;;6.18;2.88;;;17.20;99.90;;;;;;5035439;28;20095;-84
2021/09/29 07:57:41;;;;;;;3.95;2.53;;;17.30;99.90;;;;;;5035169;28;20053;-85
2021/09/29 08:00:09;;;;;;;3.13;2.75;;;17.90;99.90;;;;;;5035086;28;20057;-87
2021/09/29 08:02:36;;;;;;;2.90;2.60;;;18.20;99.90;;;;;;5038968;28;20129;-83
2021/09/29 08:05:04;;;;;;;3.78;3.45;;;18.40;99.90;;;;;;5034919;28;20049;-84
2021/09/29 08:07:31;;;;;;;2.25;2.00;;;19.00;99.90;;;;;;5034765;28;20051;-83
2021/09/29 08:09:58;;;;;;;3.92;2.63;;;19.80;99.90;;;;;;5034831;28;20055;-82
2021/09/29 08:12:25;;;;;;;2.53;2.25;;;19.60;99.90;;;;;;5034854;28;20061;-85
2021/09/29 08:14:52;;;;;;;5.40;2.35;;;18.80;99.90;;;;;;5035006;28;20077;-85
2021/09/29 08:17:20;;;;;;;4.68;2.65;;;18.10;99.90;;;;;;5034733;28;20045;-86
2021/09/29 08:19:47;;;;;;;2.88;2.60;;;17.60;99.90;;;;;;5034663;28;20054;-85
2021/09/29 08:22:14;;;;;;;2.97;2.60;;;17.30;99.90;;;;;;5034789;28;20494;-85
2021/09/29 08:32:46;;;;;;;2.70;2.50;;;17.40;99.90;;;;;;5034433;28;20055;-84
2021/09/29 08:35:26;;;;;;;3.10;2.90;;;18.10;99.90;;;;;;5035011;28;20054;-85
2021/09/29 08:38:03;;;;;;;4.57;2.17;;;18.20;99.90;;;;;;5034625;28;20128;-85
2021/09/29 08:40:48;;;;;;;2.78;2.58;;;19.90;99.90;;;;;;5034403;28;20057;-87
2021/09/29 08:43:32;;;;;;;5.95;2.60;;;21.00;99.90;;;;;;5034325;28;20505;-84
2021/09/29 08:46:11;;;;;;;4.05;2.20;;;22.50;99.90;;;;;;5034212;28;20506;-85
2021/09/29 08:48:48;;;;;;;8.02;3.65;;;22.70;99.90;;;;;;5034310;28;20052;-84
2021/09/29 09:16:12;;;;;;;3.97;3.47;;;20.30;99.90;;;;;;5035120;28;20132;-86
2021/09/29 09:18:49;;;;;;;4.10;3.50;;;19.70;99.90;;;;;;5035396;28;20050;-83
2021/09/29 09:21:17;;;;;;;6.80;3.45;;;20.90;99.90;;;;;;5050360;28;20211;-85
2021/09/29 09:23:58;;;;;;;3.90;3.50;;;20.80;99.90;;;;;;5036532;28;20052;-84
2021/09/29 09:26:28;;;;;;;3.95;3.15;;;20.90;99.90;;;;;;5033766;28;20045;-85
2021/09/29 09:29:05;;;;;;;4.53;2.95;;;20.40;99.90;;;;;;5033983;28;20075;-86
2021/09/29 09:31:33;;;;;;;2.60;2.40;;;20.40;99.90;;;;;;5033647;28;20521;-86
2021/09/29 09:34:07;;;;;;;10.40;3.80;;;21.20;99.90;;;;;;5034631;28;20073;-86
2021/09/29 09:36:43;;;;;;;3.92;2.17;;;23.00;99.90;;;;;;5033339;28;20470;-85
2021/09/29 09:39:15;;;;;;;4.05;1.75;;;24.40;96.30;;;;;;5034184;28;20092;-84
2021/09/29 09:41:51;;;;;;;1.70;1.60;;;25.50;92.40;;;;;;5033411;28;20088;-84
2021/09/29 09:44:34;;;;;;;5.20;2.17;;;24.50;91.40;;;;;;5033181;28;20057;-84
2021/09/29 09:47:16;;;;;;;3.58;2.20;;;23.30;93.60;;;;;;5034155;28;20057;-84
2021/09/29 09:49:56;;;;;;;5.38;2.20;;;22.00;96.40;;;;;;5033789;28;20053;-83
2021/09/29 09:52:27;;;;;;;7.63;2.30;;;21.50;98.30;;;;;;5034048;28;20081;-84
2021/09/29 09:55:04;;;;;;;2.53;1.90;;;20.80;99.90;;;;;;5032898;28;20478;-85
2021/09/29 09:57:33;;;;;;;2.05;1.80;;;20.30;99.90;;;;;;5032969;28;20049;-85
2021/09/29 10:00:00;;;;;;;3.30;1.60;;;19.80;99.90;;;;;;5032930;28;20053;-85
2021/09/29 10:02:38;;;;;;;7.93;1.88;;;19.80;99.90;;;;;;5032917;28;20409;-83
2021/09/29 10:05:06;;;;;;;3.35;1.52;;;20.10;99.90;;;;;;5032425;28;20045;-81
2021/09/29 10:07:33;;;;;;;2.80;1.50;;;19.90;99.90;;;;;;5032534;28;20132;-85
2021/09/29 10:10:05;;;;;;;3.75;1.52;;;21.30;99.90;;;;;;5032074;28;20053;-84
2021/09/29 10:13:01;;;;;;;3.10;1.20;;;22.70;99.10;;;;;;5034053;28;20045;-84
2021/09/29 10:27:10;;;;;;;;;;;29.00;68.00;;;;;;5033704;28;20049;-85
2021/09/29 10:29:43;;;;;;;3.97;0.98;;;30.20;64.70;;;;;;5032863;28;20366;-84
2021/09/29 10:32:24;;;;;;;1.85;1.00;;;28.70;66.20;;;;;;5032549;28;20064;-91
2021/09/29 10:35:59;;;;;;;2.50;1.00;;;27.90;65.80;;;;;;5033452;28;20406;-84
2021/09/29 10:43:23;;;;;;;9.80;1.17;;;25.00;71.20;;;;;;5033459;28;20080;-86
2021/09/29 10:46:03;;;;;;;1.60;1.08;;;25.20;75.40;;;;;;5032278;28;20461;-85
2021/09/29 10:51:33;;;;;;;1.80;0.93;;;24.90;71.30;;;;;;5032685;28;20057;-85
2021/09/29 11:05:55;;;;;;;6.88;1.38;;;21.00;79.60;;;;;;5033621;28;20056;-87
2021/09/29 11:30:36;;;;;;;5.72;1.80;;;20.40;91.40;;;;;;5033766;28;20445;-88
2021/09/29 11:33:27;;;;;;;1.75;1.02;;;20.00;91.30;;;;;;5031692;28;20049;-85
2021/09/29 11:50:03;;;;;;;3.75;0.90;;;20.40;89.90;;;;;;5032814;28;20057;-85
2021/09/29 12:11:53;;;;;;;3.35;0.80;;;21.60;82.10;;;;;;5032902;28;20068;-88
2021/09/29 12:14:21;;;;;;;6.32;1.27;;;21.10;82.70;;;;;;5035188;28;20107;-90
2021/09/29 12:16:50;;;;;;;1.33;0.50;;;20.50;85.50;;;;;;5035272;28;20099;-88
2021/09/29 12:19:24;;;;;;;2.70;0.68;;;20.40;87.00;;;;;;5035063;28;20053;-85
2021/09/29 12:21:58;;;;;;;;;;;20.30;89.10;;;;;;5035604;28;20085;-86
2021/09/29 12:24:28;;;;;;;;;;;20.40;87.80;;;;;;5035308;28;19921;-85
2021/09/29 12:26:58;;;;;;;7.50;1.10;;;20.40;90.40;;;;;;5034830;28;19928;-85
2021/09/29 12:29:36;;;;;;;8.43;1.77;;;20.20;87.70;;;;;;5035241;28;20050;-86
2021/09/29 12:37:51;;;;;;;1.80;0.80;;;19.60;91.20;;;;;;5036419;28;20053;-84
2021/09/29 12:40:18;;;;;;;4.57;0.98;;;19.40;91.70;;;;;;5036515;28;20059;-84
2021/09/29 12:42:45;;;;;;;5.15;1.38;;;19.10;92.00;;;;;;5034581;28;20052;-86
2021/09/29 12:45:12;;;;;;;2.75;0.82;;;19.00;93.00;;;;;;5036439;28;20504;-86
2021/09/29 12:47:45;;;;;;;5.68;1.00;;;18.90;93.90;;;;;;5035011;28;20045;-85
2021/09/29 12:50:13;;;;;;;6.97;1.20;;;18.70;95.00;;;;;;5035244;28;20060;-86
2021/09/29 12:52:49;;;;;;;2.92;1.02;;;18.30;96.00;;;;;;5034905;28;20405;-89
2021/09/29 12:55:21;;;;;;;2.05;0.82;;;18.10;96.40;;;;;;5034590;28;20053;-86
2021/09/29 12:57:48;;;;;;;8.25;1.25;;;18.10;99.20;;;;;;5035094;28;20050;-85
2021/09/29 13:00:16;;;;;;;4.80;1.00;;;18.30;98.80;;;;;;5035564;28;20049;-86
2021/09/29 13:02:44;;;;;;;1.80;0.75;;;18.40;99.40;;;;;;5035362;28;20084;-86
2021/09/29 13:05:11;;;;;;;2.83;0.80;;;18.60;99.90;;;;;;5035594;28;20045;-86
2021/09/29 13:07:37;;;;;;;3.65;0.80;;;18.70;99.90;;;;;;5035209;28;20498;-85
2021/09/29 13:10:05;;;;;;;2.20;0.90;;;18.90;99.30;;;;;;5034358;28;20132;-85
2021/09/29 13:12:35;;;;;;;1.23;0.80;;;19.00;99.80;;;;;;5036090;28;20049;-83
2021/09/29 13:15:02;;;;;;;3.28;0.70;;;19.30;99.90;;;;;;5048337;28;20109;-83
2021/09/29 13:17:29;;;;;;;1.30;0.82;;;19.40;99.30;;;;;;5042594;28;20064;-85
2021/09/29 13:20:01;;;;;;;5.60;1.00;;;19.40;98.50;;;;;;5033857;28;20132;-86
2021/09/29 13:22:33;;;;;;;2.08;0.77;;;19.30;97.20;;;;;;5034657;28;20045;-85
2021/09/29 13:35:03;;;;;;;2.15;0.70;;;19.00;98.30;;;;;;5034532;28;20425;-84
2021/09/29 13:38:29;;;;;;;2.20;0.80;;;19.00;99.90;;;;;;5034529;28;20049;-87
2021/09/29 13:40:56;;;;;;;4.88;1.00;;;18.80;99.30;;;;;;5033977;28;20509;-85
2021/09/29 13:43:23;;;;;;;3.70;0.80;;;18.60;99.90;;;;;;5033494;28;20128;-85
2021/09/29 13:45:49;;;;;;;3.67;0.98;;;18.70;99.90;;;;;;5034456;28;20409;-86
2021/09/29 13:48:16;;;;;;;5.15;0.82;;;18.60;99.90;;;;;;5033803;28;20479;-86
2021/09/29 13:50:43;;;;;;;4.22;0.70;;;18.50;99.90;;;;;;5033091;28;20050;-85
2021/09/29 13:53:11;;;;;;;1.30;0.50;;;18.40;99.90;;;;;;5034988;28;20481;-86
2021/09/29 13:55:38;;;;;;;5.90;0.70;;;18.50;99.90;;;;;;5034279;28;20050;-85
2021/09/29 13:58:15;;;;;;;4.28;1.20;;;18.50;99.90;;;;;;5034626;28;20038;-85
2021/09/29 14:01:06;;;;;;;2.63;0.95;;;18.40;99.90;;;;;;5034724;28;20409;-85
2021/09/29 14:03:46;;;;;;;2.85;0.95;;;18.50;99.90;;;;;;5036023;28;20091;-86
2021/09/29 14:14:53;;;;;;;3.78;1.55;;;17.70;99.90;;;;;;5034209;28;20503;-89
2021/09/29 14:31:32;;;;;;;3.10;0.90;;;17.40;99.90;;;;;;5035185;28;20060;-86
2021/09/29 14:33:59;;;;;;;2.10;1.00;;;17.40;99.90;;;;;;5050798;28;20049;-85
2021/09/29 14:36:25;;;;;;;2.47;0.77;;;17.30;99.90;;;;;;5033284;28;20506;-83
2021/09/29 14:38:52;;;;;;;1.17;0.68;;;17.50;99.90;;;;;;5032475;28;20049;-86
2021/09/29 14:41:19;;;;;;;6.45;1.45;;;17.50;99.90;;;;;;5032056;28;20045;-86
2021/09/29 14:43:46;;;;;;;4.82;1.08;;;17.50;99.90;;;;;;5033714;28;20081;-86
2021/09/29 14:46:12;;;;;;;1.98;0.80;;;17.40;99.90;;;;;;5032538;28;20046;-88
2021/09/29 14:48:39;;;;;;;7.65;1.10;;;17.40;99.90;;;;;;5034118;28;20077;-87
2021/09/29 14:51:06;;;;;;;3.33;0.80;;;17.30;99.90;;;;;;5033723;28;20504;-86
2021/09/29 14:53:35;;;;;;;3.75;0.95;;;17.30;99.90;;;;;;5032723;28;20073;-87
2021/09/29 14:56:04;;;;;;;4.47;1.10;;;17.10;99.90;;;;;;5032704;28;20128;-87
2021/09/29 14:58:32;;;;;;;4.40;1.00;;;17.00;99.90;;;;;;5032611;28;20045;-86
2021/09/29 15:01:00;;;;;;;3.17;1.02;;;16.90;99.90;;;;;;5033419;28;20049;-86
2021/09/29 15:03:27;;;;;;;5.20;1.20;;;16.80;99.90;;;;;;5032390;28;20095;-86
2021/09/29 15:05:54;;;;;;;3.88;1.00;;;16.80;99.90;;;;;;5033320;28;20507;-86
2021/09/29 15:08:22;;;;;;;11.35;0.85;;;16.60;99.90;;;;;;5032496;28;20063;-88
2021/09/29 15:10:49;;;;;;;7.07;1.33;;;16.20;99.90;;;;;;5033025;28;20152;-87
2021/09/29 15:13:18;;;;;;;5.55;1.05;;;15.90;99.90;;;;;;5032419;28;20054;-87
2021/09/29 15:15:51;;;;;;;4.90;0.90;;;15.40;99.90;;;;;;5031224;28;20057;-87
2021/09/29 15:18:31;;;;;;;3.25;0.75;;;14.90;99.90;;;;;;5032102;28;20054;-88
2021/09/29 15:26:31;;;;;;;3.08;1.05;;;14.10;99.90;;;;;;5033114;28;20077;-87
2021/09/29 15:29:27;;;;;;;3.88;0.95;;;14.10;99.90;;;;;;5032212;28;20049;-86
2021/09/29 15:48:22;;;;;;;5.05;1.20;;;14.00;99.90;;;;;;5034662;28;20042;-86
2021/09/29 15:54:21;;;;;;;6.25;1.95;;;13.80;99.90;;;;;;5037306;28;20409;-86
2021/09/29 16:01:54;;;;;;;3.25;1.90;;;13.70;99.90;;;;;;5036480;28;20049;-85
2021/09/29 16:07:04;;;;;;;10.35;5.75;;;13.70;99.90;;;;;;5035963;28;20128;-86
2021/09/29 16:10:11;;;;;;;6.43;3.58;;;13.70;99.90;;;;;;5034921;28;20053;-85